Time;durP1;ratioP1;P1;durP2;ratioP2;P2;SDS_P1;SDS_P2;PMS_P1;PMS_P2;Temp;Humidity;BMP_temperature;BMP_pressure;BME280_temperature;BME280_humidity;BME280_pressure;Samples;Min_cycle;Max_cycle;Signal;HPM_P1;HPM_P2
2021/03/20 00:00:18;;;;;;;10.68;5.55;;;-3.70;99.90;;;;;;5028880;28;20402;-73
2021/03/20 00:02:44;;;;;;;13.25;5.70;;;-3.70;99.90;;;;;;5028098;28;20092;-73
2021/03/20 00:05:10;;;;;;;12.20;5.78;;;-3.70;99.90;;;;;;5012285;28;20546;-73
2021/03/20 00:07:36;;;;;;;17.25;6.93;;;-3.70;99.90;;;;;;5012508;28;20018;-73
2021/03/20 00:10:05;;;;;;;19.92;6.05;;;-3.70;99.90;;;;;;5013261;28;20387;-73
2021/03/20 00:12:31;;;;;;;10.88;5.85;;;-3.70;99.90;;;;;;5012493;28;20069;-74
2021/03/20 00:14:56;;;;;;;14.45;5.85;;;-3.70;99.90;;;;;;5012496;28;20054;-73
2021/03/20 00:17:22;;;;;;;14.70;5.28;;;-3.80;99.90;;;;;;5013267;28;20044;-73
2021/03/20 00:19:47;;;;;;;12.55;6.13;;;-3.80;99.90;;;;;;5012923;28;20482;-73
2021/03/20 00:22:13;;;;;;;14.73;6.35;;;-3.80;99.90;;;;;;5012901;28;20041;-73
2021/03/20 00:24:39;;;;;;;16.67;5.68;;;-3.80;99.90;;;;;;5012371;28;20049;-73
2021/03/20 00:27:05;;;;;;;14.07;6.45;;;-3.80;99.90;;;;;;5011474;28;20037;-73
2021/03/20 00:29:30;;;;;;;11.93;5.03;;;-3.80;99.90;;;;;;5028227;28;20034;-73
2021/03/20 00:31:56;;;;;;;18.63;7.53;;;-3.80;99.90;;;;;;5012872;28;20617;-73
2021/03/20 00:34:21;;;;;;;15.13;6.00;;;-3.80;99.90;;;;;;5011673;28;20022;-73
2021/03/20 00:36:47;;;;;;;13.27;5.45;;;-3.90;99.90;;;;;;5010997;28;20104;-73
2021/03/20 00:39:12;;;;;;;12.50;5.38;;;-3.90;99.90;;;;;;5012764;28;20076;-73
2021/03/20 00:41:38;;;;;;;15.38;5.53;;;-3.90;99.90;;;;;;5012461;28;20038;-73
2021/03/20 00:44:04;;;;;;;14.43;6.90;;;-3.90;99.90;;;;;;5011862;28;20030;-73
2021/03/20 00:46:31;;;;;;;11.90;5.97;;;-3.90;99.90;;;;;;5011717;28;20482;-75
2021/03/20 00:48:56;;;;;;;11.60;5.28;;;-3.90;99.90;;;;;;5012848;28;20030;-75
2021/03/20 00:51:22;;;;;;;13.02;6.30;;;-4.00;99.90;;;;;;5012464;28;20034;-75
2021/03/20 00:53:47;;;;;;;28.25;8.23;;;-4.00;99.90;;;;;;5010354;28;20036;-75
2021/03/20 00:56:13;;;;;;;9.95;6.18;;;-4.00;99.90;;;;;;5011329;28;20054;-75
2021/03/20 00:58:41;;;;;;;18.88;7.03;;;-4.00;99.90;;;;;;5012224;28;20040;-74
2021/03/20 01:01:17;;;;;;;15.35;5.57;;;-4.00;99.90;;;;;;5012467;28;20022;-75
2021/03/20 01:03:43;;;;;;;15.43;5.82;;;-4.00;99.90;;;;;;5011638;28;20036;-75
2021/03/20 01:06:15;;;;;;;14.70;6.15;;;-4.00;99.90;;;;;;5012238;28;20042;-75
2021/03/20 01:08:41;;;;;;;15.57;6.18;;;-4.00;99.90;;;;;;5012449;28;20118;-75
2021/03/20 01:11:08;;;;;;;23.20;7.63;;;-3.90;99.90;;;;;;5012174;28;20445;-75
2021/03/20 01:13:34;;;;;;;17.98;7.03;;;-3.90;99.90;;;;;;5011690;28;20018;-74
2021/03/20 01:16:00;;;;;;;17.08;6.40;;;-3.80;99.90;;;;;;5011676;28;20041;-74
2021/03/20 01:18:26;;;;;;;19.27;6.53;;;-3.70;99.90;;;;;;5010937;28;20026;-74
2021/03/20 01:20:52;;;;;;;17.23;5.57;;;-3.70;99.90;;;;;;5012168;28;20394;-74
2021/03/20 01:23:17;;;;;;;22.77;7.43;;;-3.60;99.90;;;;;;5011843;28;20529;-75
2021/03/20 01:25:43;;;;;;;18.73;7.40;;;-3.40;99.90;;;;;;5011912;28;20029;-75
2021/03/20 01:28:09;;;;;;;14.20;6.18;;;-3.30;99.90;;;;;;5011783;28;20038;-74
2021/03/20 01:30:39;;;;;;;9.98;5.18;;;-3.20;99.90;;;;;;5010624;28;20037;-74
2021/03/20 01:33:05;;;;;;;10.95;5.03;;;-3.10;99.90;;;;;;5026757;28;20386;-75
2021/03/20 01:35:31;;;;;;;20.83;6.40;;;-3.00;99.90;;;;;;5010950;28;20101;-74
2021/03/20 01:37:57;;;;;;;15.90;6.85;;;-2.90;99.90;;;;;;5011999;28;20022;-75
2021/03/20 01:40:30;;;;;;;13.35;6.15;;;-2.90;99.90;;;;;;5011970;28;20025;-75
2021/03/20 01:42:56;;;;;;;15.67;5.90;;;-2.80;99.90;;;;;;5011730;28;20044;-75
2021/03/20 01:45:27;;;;;;;15.85;6.72;;;-2.80;99.90;;;;;;5010964;28;20351;-74
2021/03/20 01:47:58;;;;;;;12.07;5.70;;;-2.70;99.90;;;;;;5011763;28;20084;-75
2021/03/20 01:50:49;;;;;;;18.30;5.63;;;-2.60;99.90;;;;;;5010526;28;20121;-75
2021/03/20 01:53:26;;;;;;;12.48;4.63;;;-2.50;99.90;;;;;;5011466;28;20022;-74
2021/03/20 01:55:52;;;;;;;20.55;7.60;;;-2.40;99.90;;;;;;5011093;28;20516;-75
2021/03/20 01:58:17;;;;;;;15.27;5.65;;;-2.30;99.90;;;;;;5010367;28;20100;-75
2021/03/20 02:00:44;;;;;;;18.88;5.28;;;-2.20;99.90;;;;;;5011298;28;20105;-74
2021/03/20 02:03:16;;;;;;;13.95;5.63;;;-2.10;99.90;;;;;;5010401;28;20486;-74
2021/03/20 02:05:41;;;;;;;17.70;6.47;;;-2.00;99.90;;;;;;5026029;28;20118;-74
2021/03/20 02:08:11;;;;;;;14.57;5.82;;;-2.00;99.90;;;;;;5011764;28;20480;-75
2021/03/20 02:10:40;;;;;;;15.77;6.13;;;-1.90;99.90;;;;;;5011195;28;20030;-75
2021/03/20 02:13:26;;;;;;;13.88;6.18;;;-1.80;99.90;;;;;;5011090;28;20034;-75
2021/03/20 02:15:59;;;;;;;16.77;5.78;;;-1.80;99.90;;;;;;5025531;28;20038;-75
2021/03/20 02:18:49;;;;;;;12.02;6.93;;;-1.80;99.90;;;;;;5011653;28;20536;-75
2021/03/20 02:21:26;;;;;;;13.57;6.38;;;-1.70;99.90;;;;;;5010808;28;20437;-75
2021/03/20 02:24:39;;;;;;;11.15;4.85;;;-1.70;99.90;;;;;;5010848;28;20033;-74
2021/03/20 02:27:44;;;;;;;12.05;5.82;;;-1.60;99.90;;;;;;4988476;28;20120;-75
2021/03/20 02:30:28;;;;;;;8.95;5.60;;;-1.60;99.90;;;;;;5011701;28;20059;-75
2021/03/20 02:32:59;;;;;;;16.27;5.43;;;-1.50;99.90;;;;;;5015306;28;20037;-75
2021/03/20 02:35:36;;;;;;;20.35;5.68;;;-1.50;99.90;;;;;;5012940;28;20021;-75
2021/03/20 02:38:27;;;;;;;17.95;6.07;;;-1.50;99.90;;;;;;5013480;28;20041;-75
2021/03/20 02:41:33;;;;;;;10.65;6.45;;;-1.40;99.90;;;;;;4969235;28;20052;-75
2021/03/20 02:44:17;;;;;;;12.07;5.90;;;-1.40;99.90;;;;;;5013958;28;20034;-75
2021/03/20 02:46:52;;;;;;;11.73;6.53;;;-1.30;99.90;;;;;;5015084;28;20100;-74
2021/03/20 02:49:37;;;;;;;11.68;6.32;;;-1.30;99.90;;;;;;5013636;28;20084;-75
2021/03/20 02:52:35;;;;;;;14.32;5.90;;;-1.20;99.90;;;;;;5014645;28;20033;-74
2021/03/20 02:55:10;;;;;;;11.73;5.97;;;-1.20;99.90;;;;;;5021215;28;20482;-75
2021/03/20 02:57:53;;;;;;;15.68;7.30;;;-1.20;99.90;;;;;;5012529;28;20026;-75
2021/03/20 03:00:24;;;;;;;14.25;7.20;;;-1.10;99.90;;;;;;5014837;28;20041;-75
2021/03/20 03:02:52;;;;;;;16.40;6.15;;;-1.00;99.90;;;;;;5014686;28;20022;-75
2021/03/20 03:05:22;;;;;;;12.90;6.50;;;-1.00;99.90;;;;;;5013728;28;20061;-75
2021/03/20 03:07:52;;;;;;;9.90;5.55;;;-0.90;99.90;;;;;;5014300;28;20030;-75
2021/03/20 03:10:24;;;;;;;13.95;7.40;;;-0.90;99.90;;;;;;5014544;28;20037;-75
2021/03/20 03:12:55;;;;;;;14.55;7.30;;;-0.90;99.90;;;;;;5009449;28;20105;-75
2021/03/20 03:15:26;;;;;;;18.42;8.25;;;-0.90;99.90;;;;;;4993975;28;20081;-75
2021/03/20 03:18:01;;;;;;;12.88;6.15;;;-0.80;99.90;;;;;;4999849;28;20024;-75
2021/03/20 03:20:31;;;;;;;12.68;6.75;;;-0.80;99.90;;;;;;5014280;28;20054;-75
2021/03/20 03:23:00;;;;;;;14.48;7.43;;;-0.70;99.90;;;;;;5014340;28;20549;-75
2021/03/20 03:25:29;;;;;;;14.85;7.30;;;-0.70;99.90;;;;;;5013487;28;20057;-75
2021/03/20 03:27:58;;;;;;;15.85;7.40;;;-0.70;99.90;;;;;;5013576;28;20495;-75
2021/03/20 03:30:26;;;;;;;15.57;6.07;;;-0.70;99.90;;;;;;5014255;28;20057;-75
2021/03/20 03:33:21;;;;;;;16.25;7.55;;;-0.60;99.90;;;;;;5014266;28;20052;-75
2021/03/20 03:35:52;;;;;;;13.65;7.05;;;-0.60;99.90;;;;;;5026143;28;20029;-75
2021/03/20 03:38:28;;;;;;;16.90;7.35;;;-0.60;99.90;;;;;;5012460;28;20033;-75
2021/03/20 03:41:13;;;;;;;11.98;7.10;;;-0.50;99.90;;;;;;5013993;28;20030;-74
2021/03/20 03:43:40;;;;;;;17.88;7.15;;;-0.50;99.90;;;;;;5027270;28;20618;-75
2021/03/20 03:46:07;;;;;;;16.70;6.53;;;-0.50;99.90;;;;;;5013240;28;20433;-75
2021/03/20 03:48:33;;;;;;;13.80;7.47;;;-0.50;99.90;;;;;;5012493;28;20052;-75
2021/03/20 03:51:15;;;;;;;15.48;7.78;;;-0.50;99.90;;;;;;5012968;28;20503;-75
2021/03/20 03:53:42;;;;;;;18.85;7.60;;;-0.40;99.90;;;;;;5012879;28;20034;-75
2021/03/20 03:56:46;;;;;;;12.90;7.93;;;-0.40;99.90;;;;;;5012222;28;20030;-75
2021/03/20 03:59:11;;;;;;;14.18;7.82;;;-0.40;99.90;;;;;;4994142;28;20081;-75
2021/03/20 04:02:14;;;;;;;20.60;7.57;;;-0.30;99.90;;;;;;4994511;28;20034;-75
2021/03/20 04:04:43;;;;;;;12.93;7.88;;;-0.20;99.90;;;;;;4993595;28;20089;-75
2021/03/20 04:07:26;;;;;;;24.17;8.95;;;-0.10;99.90;;;;;;4994814;28;20061;-75
2021/03/20 04:10:18;;;;;;;21.50;7.30;;;0.00;99.90;;;;;;5013519;28;20076;-75
2021/03/20 04:13:19;;;;;;;17.77;7.10;;;0.10;99.90;;;;;;5013169;28;20030;-75
2021/03/20 04:16:03;;;;;;;22.02;7.57;;;0.30;99.90;;;;;;5011282;28;20390;-75
2021/03/20 04:18:34;;;;;;;24.02;8.55;;;0.30;99.90;;;;;;5013188;28;20033;-75
2021/03/20 04:21:14;;;;;;;15.57;8.35;;;0.40;99.90;;;;;;5011909;28;20517;-75
2021/03/20 04:23:45;;;;;;;18.55;6.82;;;0.50;99.90;;;;;;5012766;28;20037;-75
2021/03/20 04:26:22;;;;;;;26.48;9.60;;;0.50;99.90;;;;;;5013070;28;20482;-75
2021/03/20 04:29:02;;;;;;;26.58;9.55;;;0.70;99.90;;;;;;5012897;28;20441;-75
2021/03/20 04:31:35;;;;;;;16.45;8.68;;;0.80;99.90;;;;;;5013095;28;20390;-75
2021/03/20 04:34:03;;;;;;;20.20;9.75;;;0.80;99.90;;;;;;5012314;28;20018;-75
2021/03/20 04:36:47;;;;;;;24.55;9.75;;;0.90;99.90;;;;;;5012880;28;20034;-75
2021/03/20 04:39:14;;;;;;;;;;;0.90;99.90;;;;;;5013089;28;20114;-75
2021/03/20 04:41:40;;;;;;;36.63;13.10;;;1.00;99.90;;;;;;5027763;28;19910;-75
2021/03/20 04:44:07;;;;;;;29.65;12.32;;;1.10;99.90;;;;;;5012152;28;20105;-75
2021/03/20 04:46:34;;;;;;;27.17;12.07;;;1.20;99.90;;;;;;5012859;28;20030;-75
2021/03/20 04:49:23;;;;;;;26.92;12.85;;;1.30;99.90;;;;;;5011347;28;20030;-75
2021/03/20 04:52:11;;;;;;;29.70;12.10;;;1.30;99.90;;;;;;5006074;28;20125;-75
2021/03/20 04:54:37;;;;;;;23.35;10.90;;;1.30;99.90;;;;;;5026546;28;20081;-75
2021/03/20 04:57:08;;;;;;;23.20;10.80;;;1.30;99.90;;;;;;5012409;28;20032;-75
2021/03/20 04:59:55;;;;;;;21.75;11.43;;;1.40;99.90;;;;;;5012569;28;20029;-75
2021/03/20 05:02:37;;;;;;;29.38;11.85;;;1.50;99.90;;;;;;5011348;28;20478;-75
2021/03/20 05:05:29;;;;;;;38.65;11.65;;;1.50;99.90;;;;;;5026625;28;20068;-75
2021/03/20 05:08:00;;;;;;;24.95;11.63;;;1.50;99.90;;;;;;5012449;28;20132;-75
2021/03/20 05:10:48;;;;;;;24.15;12.65;;;1.50;99.90;;;;;;5012291;28;20497;-75
2021/03/20 05:13:42;;;;;;;32.85;13.90;;;1.60;99.90;;;;;;5011852;28;20049;-74
2021/03/20 05:16:17;;;;;;;33.17;14.38;;;1.60;99.90;;;;;;5027498;28;20449;-75
2021/03/20 05:18:44;;;;;;;38.00;13.95;;;1.60;99.90;;;;;;5012312;28;20449;-75
2021/03/20 05:21:12;;;;;;;28.15;14.15;;;1.70;99.90;;;;;;5012207;28;20030;-75
2021/03/20 05:23:38;;;;;;;32.42;14.23;;;1.80;99.90;;;;;;5011589;28;20033;-75
2021/03/20 05:26:04;;;;;;;29.90;13.82;;;1.80;99.90;;;;;;5011879;28;20110;-75
2021/03/20 05:28:32;;;;;;;37.83;15.55;;;1.80;99.90;;;;;;5011804;28;20482;-75
2021/03/20 05:31:00;;;;;;;32.20;14.38;;;1.90;99.90;;;;;;5012050;28;20085;-75
2021/03/20 05:33:26;;;;;;;29.58;15.02;;;1.90;99.90;;;;;;5010570;28;20104;-75
2021/03/20 05:35:51;;;;;;;43.35;15.88;;;1.90;99.90;;;;;;5010956;28;20033;-75
2021/03/20 05:38:17;;;;;;;37.33;17.30;;;1.90;99.90;;;;;;5012063;28;20026;-75
2021/03/20 05:40:43;;;;;;;34.30;16.20;;;1.90;99.90;;;;;;5011889;28;20376;-75
2021/03/20 05:43:08;;;;;;;39.28;16.33;;;1.90;99.90;;;;;;5011605;28;20111;-75
2021/03/20 05:45:40;;;;;;;33.20;15.40;;;1.90;99.90;;;;;;5011167;28;20041;-78
2021/03/20 05:48:50;;;;;;;40.15;15.70;;;2.00;99.90;;;;;;5011946;28;20504;-77
2021/03/20 05:51:58;;;;;;;33.78;15.57;;;2.00;99.90;;;;;;4970622;28;20037;-78
2021/03/20 05:54:36;;;;;;;40.88;16.73;;;1.90;99.90;;;;;;5010775;28;20018;-77
2021/03/20 05:57:39;;;;;;;36.72;15.70;;;2.00;99.90;;;;;;5010465;28;20509;-78
2021/03/20 06:00:42;;;;;;;37.17;16.60;;;2.00;99.90;;;;;;5011786;28;20406;-78
2021/03/20 06:03:46;;;;;;;27.05;15.40;;;2.10;99.90;;;;;;5011348;28;20474;-77
2021/03/20 06:06:30;;;;;;;38.75;17.42;;;2.10;99.90;;;;;;5012307;28;20044;-77
2021/03/20 06:09:27;;;;;;;37.60;17.77;;;2.10;99.90;;;;;;5015770;28;20030;-77
2021/03/20 06:11:56;;;;;;;38.13;16.60;;;2.10;99.90;;;;;;5015348;28;20069;-77
2021/03/20 06:14:39;;;;;;;40.97;17.23;;;2.20;99.90;;;;;;5013511;28;20076;-77
2021/03/20 06:17:32;;;;;;;31.95;16.45;;;2.20;99.90;;;;;;5015655;28;20084;-77
2021/03/20 06:20:37;;;;;;;45.47;15.65;;;2.20;99.90;;;;;;5015752;28;20457;-78
2021/03/20 06:23:21;;;;;;;48.05;16.02;;;2.20;99.90;;;;;;5014843;28;20038;-77
2021/03/20 06:25:57;;;;;;;35.83;15.05;;;2.40;99.90;;;;;;5014724;28;20061;-77
2021/03/20 06:28:32;;;;;;;32.63;13.63;;;2.50;99.90;;;;;;5014995;28;20574;-77
2021/03/20 06:31:10;;;;;;;30.08;12.77;;;2.50;99.90;;;;;;5015262;28;20022;-77
2021/03/20 06:33:52;;;;;;;28.63;13.20;;;2.60;99.90;;;;;;5013579;28;20548;-78
2021/03/20 06:36:35;;;;;;;25.85;12.93;;;2.60;99.90;;;;;;5015293;28;20030;-78
2021/03/20 06:39:04;;;;;;;32.75;12.07;;;2.70;99.90;;;;;;5030673;28;20026;-78
2021/03/20 06:41:36;;;;;;;33.80;11.18;;;2.70;99.90;;;;;;5015091;28;20387;-78
2021/03/20 06:44:24;;;;;;;23.88;9.60;;;2.80;99.90;;;;;;5029510;28;20128;-78
2021/03/20 06:46:51;;;;;;;24.40;9.50;;;2.80;99.90;;;;;;5015098;28;20053;-78
2021/03/20 06:49:29;;;;;;;26.15;9.45;;;2.90;99.90;;;;;;5030238;28;20037;-78
2021/03/20 06:51:57;;;;;;;32.22;7.53;;;2.90;99.90;;;;;;5014691;28;20087;-78
2021/03/20 06:54:25;;;;;;;16.42;7.47;;;3.00;99.90;;;;;;5011078;28;20057;-78
2021/03/20 06:56:51;;;;;;;17.58;6.40;;;3.00;99.90;;;;;;5014610;28;20504;-78
2021/03/20 06:59:18;;;;;;;19.67;7.00;;;3.00;99.90;;;;;;5013598;28;20029;-78
2021/03/20 07:01:54;;;;;;;28.02;6.45;;;3.00;99.90;;;;;;5014781;28;20040;-78
2021/03/20 07:04:37;;;;;;;24.67;6.10;;;3.00;99.90;;;;;;5013623;28;20030;-78
2021/03/20 07:07:21;;;;;;;11.87;5.50;;;3.10;99.90;;;;;;5014649;28;20022;-78
2021/03/20 07:09:49;;;;;;;9.77;4.97;;;3.10;99.90;;;;;;5014812;28;20264;-78
2021/03/20 07:12:22;;;;;;;14.27;4.82;;;3.30;99.90;;;;;;5014396;28;20498;-78
2021/03/20 07:14:54;;;;;;;13.03;4.50;;;3.40;99.90;;;;;;5029056;28;20038;-77
2021/03/20 07:17:23;;;;;;;15.35;4.68;;;3.50;99.90;;;;;;5014495;28;20061;-78
2021/03/20 07:20:09;;;;;;;14.13;4.38;;;3.70;99.90;;;;;;5014468;28;20088;-77
2021/03/20 07:22:42;;;;;;;13.90;4.53;;;3.80;99.90;;;;;;5029354;28;20030;-78
2021/03/20 07:25:18;;;;;;;;;;;3.90;99.90;;;;;;5029189;28;20049;-78
2021/03/20 07:27:44;;;;;;;8.38;3.67;;;4.00;99.90;;;;;;5014154;28;20326;-78
2021/03/20 07:30:37;;;;;;;19.20;4.43;;;4.20;99.90;;;;;;5014291;28;20116;-78
2021/03/20 07:33:37;;;;;;;13.15;3.90;;;4.30;99.90;;;;;;5029100;28;20490;-78
2021/03/20 07:36:21;;;;;;;13.02;4.15;;;4.40;99.90;;;;;;5013069;28;20045;-78
2021/03/20 07:39:13;;;;;;;5.97;3.13;;;4.50;99.90;;;;;;5014145;28;20025;-78
2021/03/20 07:41:50;;;;;;;7.00;3.75;;;4.50;99.90;;;;;;5013822;28;20076;-77
2021/03/20 07:44:16;;;;;;;9.38;3.63;;;4.70;99.90;;;;;;5013366;28;20418;-78
2021/03/20 07:46:42;;;;;;;8.48;3.70;;;4.80;99.90;;;;;;5014016;28;20470;-78
2021/03/20 07:49:25;;;;;;;7.43;3.65;;;4.90;99.90;;;;;;5013910;28;20539;-77
2021/03/20 07:52:04;;;;;;;12.75;3.85;;;4.80;99.90;;;;;;5013806;28;20498;-77
2021/03/20 07:54:35;;;;;;;12.88;4.00;;;4.80;99.90;;;;;;5009875;28;20084;-78
2021/03/20 07:57:13;;;;;;;10.43;3.97;;;4.80;99.90;;;;;;5012276;28;20029;-77
2021/03/20 07:59:48;;;;;;;13.20;4.85;;;4.70;99.90;;;;;;5013397;28;20044;-78
2021/03/20 08:02:33;;;;;;;11.82;4.50;;;4.80;99.90;;;;;;5025771;28;20468;-77
2021/03/20 08:05:03;;;;;;;6.47;3.88;;;4.80;99.90;;;;;;4993024;28;20038;-77
2021/03/20 08:07:37;;;;;;;6.55;3.00;;;4.80;99.90;;;;;;4993763;28;20030;-77
2021/03/20 08:10:21;;;;;;;;;;;4.80;99.90;;;;;;5009280;28;20072;-78
2021/03/20 08:13:13;;;;;;;8.60;2.83;;;4.90;99.90;;;;;;5003281;28;20008;-77
2021/03/20 08:15:41;;;;;;;18.77;3.90;;;4.80;99.90;;;;;;5026107;28;20072;-77
2021/03/20 08:18:35;;;;;;;14.82;3.80;;;4.80;99.90;;;;;;5013337;28;20045;-77
2021/03/20 08:21:13;;;;;;;7.07;3.42;;;4.80;99.90;;;;;;5028475;28;20414;-77
2021/03/20 08:23:53;;;;;;;9.57;3.67;;;4.90;99.90;;;;;;5012257;28;20030;-77
2021/03/20 08:26:19;;;;;;;10.75;4.18;;;5.10;99.90;;;;;;5013073;28;20026;-77
2021/03/20 08:29:00;;;;;;;9.73;4.22;;;5.20;99.90;;;;;;5014015;28;20117;-77
2021/03/20 08:32:02;;;;;;;12.60;4.35;;;5.10;99.90;;;;;;5012658;28;20534;-78
2021/03/20 08:34:49;;;;;;;14.07;4.30;;;5.00;99.90;;;;;;5012161;28;20053;-77
2021/03/20 08:37:33;;;;;;;11.63;4.72;;;5.00;99.90;;;;;;5012944;28;20096;-77
2021/03/20 08:40:28;;;;;;;15.63;4.85;;;5.10;99.90;;;;;;5012250;28;20054;-77
2021/03/20 08:43:08;;;;;;;8.98;4.63;;;5.10;99.90;;;;;;5012687;28;20026;-77
2021/03/20 08:45:57;;;;;;;9.57;4.15;;;5.20;99.90;;;;;;5010475;28;21576;-77
2021/03/20 08:48:39;;;;;;;12.15;4.95;;;5.30;99.90;;;;;;5011387;28;20108;-77
2021/03/20 08:51:32;;;;;;;14.70;4.90;;;5.20;99.90;;;;;;5012429;28;20029;-77
2021/03/20 08:54:12;;;;;;;13.98;4.72;;;5.20;99.90;;;;;;4996286;28;20030;-77
2021/03/20 08:56:59;;;;;;;15.88;5.25;;;5.20;99.90;;;;;;5012656;28;20041;-77
2021/03/20 08:59:31;;;;;;;15.93;5.60;;;5.20;99.90;;;;;;5012715;28;20022;-77
2021/03/20 09:02:05;;;;;;;17.23;5.55;;;5.10;99.90;;;;;;5011769;28;20076;-77
2021/03/20 09:04:35;;;;;;;10.35;5.20;;;5.10;99.90;;;;;;5001622;28;20029;-78
2021/03/20 09:07:19;;;;;;;12.70;5.93;;;5.00;99.90;;;;;;5009409;28;20113;-77
2021/03/20 09:09:53;;;;;;;17.73;6.05;;;4.90;99.90;;;;;;5011177;28;20459;-77
2021/03/20 09:12:25;;;;;;;19.25;6.03;;;5.00;99.90;;;;;;5027370;28;20589;-77
2021/03/20 09:14:52;;;;;;;25.17;6.28;;;4.90;99.90;;;;;;5010181;28;20121;-77
2021/03/20 09:17:37;;;;;;;21.77;7.18;;;4.90;99.90;;;;;;5010949;28;20092;-77
2021/03/20 09:20:31;;;;;;;19.30;6.40;;;4.80;99.90;;;;;;5012043;28;20129;-77
2021/03/20 09:22:58;;;;;;;;;;;4.90;99.90;;;;;;5012416;28;20034;-77
2021/03/20 09:25:23;;;;;;;21.70;6.50;;;4.80;99.90;;;;;;5011366;28;19909;-78
2021/03/20 09:28:03;;;;;;;32.38;6.55;;;4.80;99.90;;;;;;5012100;28;20029;-77
2021/03/20 09:30:29;;;;;;;19.42;6.10;;;4.80;99.90;;;;;;5011671;28;20100;-77
2021/03/20 09:32:56;;;;;;;18.92;6.30;;;4.80;99.90;;;;;;5010778;28;20025;-77
2021/03/20 09:35:26;;;;;;;18.33;6.57;;;4.80;99.90;;;;;;5011238;28;20097;-78
2021/03/20 09:38:00;;;;;;;22.63;7.15;;;4.80;99.90;;;;;;5027264;28;20026;-77
2021/03/20 09:40:50;;;;;;;18.88;7.35;;;4.80;99.90;;;;;;5011198;28;20040;-77
2021/03/20 09:43:21;;;;;;;21.58;7.97;;;4.80;99.90;;;;;;5012057;28;20032;-77
2021/03/20 09:46:07;;;;;;;15.32;6.68;;;4.80;99.90;;;;;;5010642;28;20454;-78
2021/03/20 09:48:45;;;;;;;24.65;7.78;;;4.70;99.90;;;;;;5011625;28;20409;-79
2021/03/20 09:51:51;;;;;;;30.92;7.03;;;4.70;99.90;;;;;;5011299;28;20083;-79
2021/03/20 09:54:42;;;;;;;23.92;8.52;;;4.80;99.90;;;;;;5009771;28;20036;-79
2021/03/20 09:57:11;;;;;;;27.35;9.00;;;4.70;99.90;;;;;;5011828;28;20018;-78
2021/03/20 09:59:37;;;;;;;20.58;7.32;;;4.70;99.90;;;;;;5010433;28;20022;-79
2021/03/20 10:02:12;;;;;;;22.58;7.47;;;4.70;99.90;;;;;;5010283;28;20061;-78
2021/03/20 10:04:53;;;;;;;26.60;8.13;;;4.70;99.90;;;;;;5010439;28;20045;-79
2021/03/20 10:07:21;;;;;;;34.53;9.15;;;4.70;99.90;;;;;;5011623;28;20083;-78
2021/03/20 10:10:11;;;;;;;24.98;8.00;;;4.70;99.90;;;;;;5011675;28;20026;-78
2021/03/20 10:12:46;;;;;;;40.25;8.43;;;4.60;99.90;;;;;;5010438;28;20022;-78
2021/03/20 10:18:08;;;;;;;25.38;9.30;;;4.50;99.90;;;;;;4992062;28;20507;-78
2021/03/20 10:20:52;;;;;;;35.85;10.68;;;4.50;99.90;;;;;;5006960;28;20023;-78
2021/03/20 10:23:49;;;;;;;25.27;9.63;;;4.50;99.90;;;;;;4997488;28;20492;-78
2021/03/20 10:26:26;;;;;;;34.08;10.60;;;4.40;99.90;;;;;;5006959;28;20034;-78
2021/03/20 10:28:59;;;;;;;44.53;11.57;;;4.40;99.90;;;;;;5007102;28;20026;-78
2021/03/20 10:31:27;;;;;;;32.10;12.27;;;4.40;99.90;;;;;;5001615;28;20108;-78
2021/03/20 10:34:14;;;;;;;45.22;12.52;;;4.40;99.90;;;;;;5010428;28;20045;-78
2021/03/20 10:36:46;;;;;;;40.30;11.40;;;4.40;99.90;;;;;;5009969;28;20521;-78
2021/03/20 10:39:36;;;;;;;27.45;11.85;;;4.30;99.90;;;;;;5026641;28;20030;-75
2021/03/20 10:42:14;;;;;;;34.50;12.20;;;4.30;99.90;;;;;;5011322;28;20046;-76
2021/03/20 10:44:43;;;;;;;35.15;11.45;;;4.30;99.90;;;;;;5024610;28;20021;-75
2021/03/20 10:47:11;;;;;;;30.55;11.25;;;4.30;99.90;;;;;;5010283;28;20052;-75
2021/03/20 10:49:41;;;;;;;40.67;12.15;;;4.30;99.90;;;;;;5010717;28;20084;-78
2021/03/20 10:52:16;;;;;;;44.47;12.23;;;4.40;99.90;;;;;;5028067;28;20513;-78
2021/03/20 10:54:44;;;;;;;47.42;13.00;;;4.40;99.90;;;;;;5014030;28;20018;-78
2021/03/20 10:57:15;;;;;;;34.42;12.45;;;4.50;99.90;;;;;;5014779;28;20022;-77
2021/03/20 10:59:45;;;;;;;34.13;11.48;;;4.50;99.90;;;;;;5014492;28;20022;-78
2021/03/20 11:02:24;;;;;;;43.90;11.20;;;4.50;99.90;;;;;;5014915;28;20033;-78
2021/03/20 11:04:52;;;;;;;25.45;9.80;;;4.50;99.90;;;;;;5014024;28;20517;-78
2021/03/20 11:07:21;;;;;;;33.10;10.88;;;4.50;99.90;;;;;;5014636;28;20029;-78
2021/03/20 11:09:47;;;;;;;30.35;10.60;;;4.50;99.90;;;;;;5010495;28;20487;-77
2021/03/20 11:12:19;;;;;;;30.00;10.68;;;4.50;99.90;;;;;;5013696;28;20030;-78
2021/03/20 11:14:52;;;;;;;34.50;11.48;;;4.50;99.90;;;;;;5013887;28;20081;-77
2021/03/20 11:17:23;;;;;;;26.37;10.83;;;4.50;99.90;;;;;;5014156;28;20171;-77
2021/03/20 11:19:58;;;;;;;31.48;9.65;;;4.60;99.90;;;;;;5014102;28;20491;-78
2021/03/20 11:22:40;;;;;;;28.92;10.80;;;4.60;99.90;;;;;;5029692;28;20026;-77
2021/03/20 11:25:29;;;;;;;35.95;11.02;;;4.60;99.90;;;;;;5013670;28;20038;-78
2021/03/20 11:28:03;;;;;;;22.38;8.15;;;4.60;99.90;;;;;;5013060;28;20030;-75
2021/03/20 11:30:51;;;;;;;21.27;7.70;;;4.60;99.90;;;;;;5013654;28;20034;-76
2021/03/20 11:33:22;;;;;;;24.88;7.82;;;4.60;99.90;;;;;;5014039;28;20021;-76
2021/03/20 11:35:51;;;;;;;26.23;7.95;;;4.70;99.90;;;;;;5013439;28;20053;-75
2021/03/20 11:38:19;;;;;;;13.60;7.05;;;4.70;99.90;;;;;;5014109;28;20483;-75
2021/03/20 11:40:47;;;;;;;21.30;6.40;;;4.70;99.90;;;;;;5013983;28;20029;-75
2021/03/20 11:43:17;;;;;;;22.05;7.05;;;4.70;99.90;;;;;;5014064;28;20022;-75
2021/03/20 11:45:43;;;;;;;25.92;7.50;;;4.60;99.90;;;;;;5012814;28;20024;-75
2021/03/20 11:48:21;;;;;;;24.52;8.05;;;4.70;99.90;;;;;;5014060;28;20026;-75
2021/03/20 11:50:55;;;;;;;21.20;8.38;;;4.70;99.90;;;;;;5013587;28;20512;-75
2021/03/20 11:53:31;;;;;;;22.30;7.68;;;4.70;99.90;;;;;;5013752;28;20026;-75
2021/03/20 11:55:58;;;;;;;16.83;7.00;;;4.70;99.90;;;;;;5011841;28;20057;-76
2021/03/20 11:58:26;;;;;;;19.52;7.10;;;4.70;99.90;;;;;;5013701;28;20410;-75
2021/03/20 12:00:52;;;;;;;23.13;7.07;;;4.70;99.90;;;;;;5013210;28;20068;-74
2021/03/20 12:03:21;;;;;;;26.95;7.68;;;4.70;99.90;;;;;;5012380;28;20057;-74
2021/03/20 12:05:47;;;;;;;19.48;7.45;;;4.80;99.90;;;;;;5012512;28;20412;-75
2021/03/20 12:08:33;;;;;;;31.05;8.23;;;4.80;99.90;;;;;;5012739;28;20026;-75
2021/03/20 12:11:11;;;;;;;33.25;8.02;;;4.80;99.90;;;;;;5028534;28;20112;-75
2021/03/20 12:13:55;;;;;;;25.02;7.47;;;4.90;99.90;;;;;;5028023;28;20505;-74
2021/03/20 12:16:43;;;;;;;25.42;7.60;;;4.90;99.90;;;;;;5028521;28;20041;-75
2021/03/20 12:19:16;;;;;;;33.38;7.03;;;4.90;99.90;;;;;;5013126;28;20026;-75
2021/03/20 12:22:12;;;;;;;22.25;6.72;;;5.00;99.90;;;;;;5028087;28;20029;-76
2021/03/20 12:24:43;;;;;;;18.55;6.80;;;4.90;99.90;;;;;;5012574;28;20033;-75
2021/03/20 12:27:28;;;;;;;16.50;6.32;;;5.00;99.90;;;;;;5013182;28;20478;-75
2021/03/20 12:30:19;;;;;;;16.90;5.50;;;4.90;99.90;;;;;;5012953;28;20033;-75
2021/03/20 12:32:50;;;;;;;19.38;6.13;;;5.00;99.90;;;;;;5005650;28;20046;-75
2021/03/20 12:35:19;;;;;;;21.17;5.97;;;5.10;99.90;;;;;;5027738;28;20402;-75
2021/03/20 12:38:03;;;;;;;13.38;5.90;;;5.10;99.90;;;;;;5012594;28;20034;-75
2021/03/20 12:40:29;;;;;;;21.08;5.78;;;5.10;99.90;;;;;;5028224;28;20077;-75
2021/03/20 12:42:54;;;;;;;14.77;5.75;;;5.10;99.90;;;;;;5012650;28;20034;-75
2021/03/20 12:45:25;;;;;;;10.80;5.10;;;5.20;99.90;;;;;;5011566;28;20487;-75
2021/03/20 12:47:50;;;;;;;9.80;4.22;;;5.20;99.90;;;;;;5012741;28;20029;-77
2021/03/20 12:50:16;;;;;;;10.93;4.72;;;5.20;99.90;;;;;;5011369;28;20394;-76
2021/03/20 12:52:42;;;;;;;7.28;3.45;;;5.30;99.90;;;;;;5012126;28;20367;-75
2021/03/20 12:55:08;;;;;;;8.98;3.65;;;5.20;99.90;;;;;;5010817;28;20025;-75
2021/03/20 12:57:35;;;;;;;6.13;4.00;;;5.30;99.90;;;;;;5012536;28;20048;-75
2021/03/20 13:00:04;;;;;;;8.35;3.97;;;5.30;99.90;;;;;;5027651;28;20028;-75
2021/03/20 13:02:29;;;;;;;14.68;4.75;;;5.40;99.90;;;;;;5012117;28;20055;-75
2021/03/20 13:04:55;;;;;;;14.52;5.40;;;5.40;99.90;;;;;;5010782;28;20026;-76
2021/03/20 13:07:21;;;;;;;12.38;4.90;;;5.40;99.90;;;;;;5010879;28;20096;-76
2021/03/20 13:09:48;;;;;;;12.88;6.57;;;5.40;99.90;;;;;;5012478;28;20483;-77
2021/03/20 13:12:14;;;;;;;14.40;6.13;;;5.50;99.90;;;;;;5027569;28;20037;-77
2021/03/20 13:14:41;;;;;;;12.50;7.18;;;5.50;99.90;;;;;;5026038;28;20569;-76
2021/03/20 13:17:07;;;;;;;11.00;4.90;;;5.60;99.90;;;;;;5011697;28;20478;-77
2021/03/20 13:19:33;;;;;;;13.60;5.38;;;5.60;99.90;;;;;;5027340;28;20088;-75
2021/03/20 13:21:59;;;;;;;13.77;5.40;;;5.60;99.90;;;;;;5012105;28;20030;-75
2021/03/20 13:24:26;;;;;;;10.55;4.25;;;5.50;99.90;;;;;;5026719;28;20034;-75
2021/03/20 13:26:51;;;;;;;8.00;4.28;;;5.50;99.90;;;;;;5026784;28;20033;-75